sensor_id;sensor_type;location;lat;lon;timestamp;temperature;humidity
17715;DHT22;8977;50.902;4.314;2022-11-20T00:00:19;9.30;99.90
17715;DHT22;8977;50.902;4.314;2022-11-20T00:02:46;9.40;99.90
17715;DHT22;8977;50.902;4.314;2022-11-20T00:05:12;9.40;99.90
17715;DHT22;8977;50.902;4.314;2022-11-20T00:07:41;9.40;99.90
17715;DHT22;8977;50.902;4.314;2022-11-20T00:10:08;9.40;99.90
17715;DHT22;8977;50.902;4.314;2022-11-20T00:12:35;9.40;99.90
17715;DHT22;8977;50.902;4.314;2022-11-20T00:15:02;9.40;99.90
17715;DHT22;8977;50.902;4.314;2022-11-20T00:17:28;9.30;99.90
17715;DHT22;8977;50.902;4.314;2022-11-20T00:19:55;9.30;99.90
17715;DHT22;8977;50.902;4.314;2022-11-20T00:22:22;9.30;99.90
17715;DHT22;8977;50.902;4.314;2022-11-20T00:24:50;9.30;99.90
17715;DHT22;8977;50.902;4.314;2022-11-20T00:27:17;9.20;99.90
17715;DHT22;8977;50.902;4.314;2022-11-20T00:29:44;9.20;99.90
17715;DHT22;8977;50.902;4.314;2022-11-20T00:32:11;9.20;99.90
17715;DHT22;8977;50.902;4.314;2022-11-20T00:34:38;9.20;99.90
17715;DHT22;8977;50.902;4.314;2022-11-20T00:37:04;9.20;99.90
17715;DHT22;8977;50.902;4.314;2022-11-20T00:39:31;9.20;99.90
17715;DHT22;8977;50.902;4.314;2022-11-20T00:41:59;9.20;99.90
17715;DHT22;8977;50.902;4.314;2022-11-20T00:44:26;9.20;99.90
17715;DHT22;8977;50.902;4.314;2022-11-20T00:46:53;9.20;99.90
17715;DHT22;8977;50.902;4.314;2022-11-20T00:49:20;9.30;99.90
17715;DHT22;8977;50.902;4.314;2022-11-20T00:51:47;9.20;99.90
17715;DHT22;8977;50.902;4.314;2022-11-20T00:54:15;9.20;99.90
17715;DHT22;8977;50.902;4.314;2022-11-20T00:56:42;9.20;99.90
17715;DHT22;8977;50.902;4.314;2022-11-20T00:59:11;9.20;99.90
17715;DHT22;8977;50.902;4.314;2022-11-20T01:01:38;9.20;99.90
17715;DHT22;8977;50.902;4.314;2022-11-20T01:04:05;9.20;99.90
17715;DHT22;8977;50.902;4.314;2022-11-20T01:06:33;9.20;99.90
17715;DHT22;8977;50.902;4.314;2022-11-20T01:09:02;9.30;99.90
17715;DHT22;8977;50.902;4.314;2022-11-20T01:11:31;9.30;99.90
17715;DHT22;8977;50.902;4.314;2022-11-20T01:14:01;9.20;99.90
17715;DHT22;8977;50.902;4.314;2022-11-20T01:16:32;9.20;99.90
17715;DHT22;8977;50.902;4.314;2022-11-20T01:19:01;9.30;99.90
17715;DHT22;8977;50.902;4.314;2022-11-20T01:21:29;9.30;99.90
17715;DHT22;8977;50.902;4.314;2022-11-20T01:23:57;9.30;99.90
17715;DHT22;8977;50.902;4.314;2022-11-20T01:26:25;9.30;99.90
17715;DHT22;8977;50.902;4.314;2022-11-20T01:28:54;9.30;99.90
17715;DHT22;8977;50.902;4.314;2022-11-20T01:31:22;9.40;99.90
17715;DHT22;8977;50.902;4.314;2022-11-20T01:33:53;9.30;99.90
17715;DHT22;8977;50.902;4.314;2022-11-20T01:36:21;9.30;99.90
17715;DHT22;8977;50.902;4.314;2022-11-20T01:38:51;9.30;99.90
17715;DHT22;8977;50.902;4.314;2022-11-20T01:41:18;9.20;99.90
17715;DHT22;8977;50.902;4.314;2022-11-20T01:43:59;9.20;99.90
17715;DHT22;8977;50.902;4.314;2022-11-20T01:46:26;9.20;99.90
17715;DHT22;8977;50.902;4.314;2022-11-20T01:48:58;9.20;99.90
17715;DHT22;8977;50.902;4.314;2022-11-20T01:51:31;9.30;99.90
17715;DHT22;8977;50.902;4.314;2022-11-20T01:54:01;9.30;99.90
17715;DHT22;8977;50.902;4.314;2022-11-20T01:56:32;9.30;99.90
17715;DHT22;8977;50.902;4.314;2022-11-20T01:59:02;9.40;99.90
17715;DHT22;8977;50.902;4.314;2022-11-20T02:01:31;9.40;99.90
17715;DHT22;8977;50.902;4.314;2022-11-20T02:04:01;9.40;99.90
17715;DHT22;8977;50.902;4.314;2022-11-20T02:06:30;9.30;99.90
17715;DHT22;8977;50.902;4.314;2022-11-20T02:08:59;9.30;99.90
17715;DHT22;8977;50.902;4.314;2022-11-20T02:11:25;9.30;99.90
17715;DHT22;8977;50.902;4.314;2022-11-20T02:13:53;9.20;99.90
17715;DHT22;8977;50.902;4.314;2022-11-20T02:16:21;9.20;99.90
17715;DHT22;8977;50.902;4.314;2022-11-20T02:18:50;9.20;99.90
17715;DHT22;8977;50.902;4.314;2022-11-20T02:21:34;9.20;99.90
17715;DHT22;8977;50.902;4.314;2022-11-20T02:24:07;9.30;99.90
17715;DHT22;8977;50.902;4.314;2022-11-20T02:26:41;9.30;99.90
17715;DHT22;8977;50.902;4.314;2022-11-20T02:29:09;9.30;99.90
17715;DHT22;8977;50.902;4.314;2022-11-20T02:31:38;9.20;99.90
17715;DHT22;8977;50.902;4.314;2022-11-20T02:34:06;9.30;99.90
17715;DHT22;8977;50.902;4.314;2022-11-20T02:36:34;9.30;99.90
17715;DHT22;8977;50.902;4.314;2022-11-20T02:39:02;9.30;99.90
17715;DHT22;8977;50.902;4.314;2022-11-20T02:41:35;9.40;99.90
17715;DHT22;8977;50.902;4.314;2022-11-20T02:44:03;9.30;99.90
17715;DHT22;8977;50.902;4.314;2022-11-20T02:46:31;9.30;99.90
17715;DHT22;8977;50.902;4.314;2022-11-20T02:48:58;9.40;99.90
17715;DHT22;8977;50.902;4.314;2022-11-20T02:51:25;9.40;99.90
17715;DHT22;8977;50.902;4.314;2022-11-20T02:53:52;9.30;99.90
17715;DHT22;8977;50.902;4.314;2022-11-20T02:56:20;9.40;99.90
17715;DHT22;8977;50.902;4.314;2022-11-20T02:58:48;9.40;99.90
17715;DHT22;8977;50.902;4.314;2022-11-20T03:01:15;9.40;99.90
17715;DHT22;8977;50.902;4.314;2022-11-20T03:03:42;9.40;99.90
17715;DHT22;8977;50.902;4.314;2022-11-20T03:06:08;9.40;99.90
17715;DHT22;8977;50.902;4.314;2022-11-20T03:08:35;9.40;99.90
17715;DHT22;8977;50.902;4.314;2022-11-20T03:11:04;9.40;99.90
17715;DHT22;8977;50.902;4.314;2022-11-20T03:13:31;9.40;99.90
17715;DHT22;8977;50.902;4.314;2022-11-20T03:16:08;9.40;99.90
17715;DHT22;8977;50.902;4.314;2022-11-20T03:18:35;9.40;99.90
17715;DHT22;8977;50.902;4.314;2022-11-20T03:21:02;9.40;99.90
17715;DHT22;8977;50.902;4.314;2022-11-20T03:23:30;9.30;99.90
17715;DHT22;8977;50.902;4.314;2022-11-20T03:26:08;9.30;99.90
17715;DHT22;8977;50.902;4.314;2022-11-20T03:28:35;9.40;99.90
17715;DHT22;8977;50.902;4.314;2022-11-20T03:31:07;9.40;99.90
17715;DHT22;8977;50.902;4.314;2022-11-20T03:33:34;9.30;99.90
17715;DHT22;8977;50.902;4.314;2022-11-20T03:36:02;9.30;99.90
17715;DHT22;8977;50.902;4.314;2022-11-20T03:38:30;9.30;99.90
17715;DHT22;8977;50.902;4.314;2022-11-20T03:41:01;9.40;99.90
17715;DHT22;8977;50.902;4.314;2022-11-20T03:43:28;9.40;99.90
17715;DHT22;8977;50.902;4.314;2022-11-20T03:45:56;9.40;99.90
17715;DHT22;8977;50.902;4.314;2022-11-20T03:48:25;9.40;99.90
17715;DHT22;8977;50.902;4.314;2022-11-20T03:50:52;9.40;99.90
17715;DHT22;8977;50.902;4.314;2022-11-20T03:53:19;9.40;99.90
17715;DHT22;8977;50.902;4.314;2022-11-20T03:55:50;9.30;99.90
17715;DHT22;8977;50.902;4.314;2022-11-20T03:58:18;9.40;99.90
17715;DHT22;8977;50.902;4.314;2022-11-20T04:00:45;9.40;99.90
17715;DHT22;8977;50.902;4.314;2022-11-20T04:03:12;9.40;99.90
17715;DHT22;8977;50.902;4.314;2022-11-20T04:05:40;9.40;99.90
17715;DHT22;8977;50.902;4.314;2022-11-20T04:08:07;9.40;99.90
17715;DHT22;8977;50.902;4.314;2022-11-20T04:10:34;9.40;99.90
17715;DHT22;8977;50.902;4.314;2022-11-20T04:13:01;9.40;99.90
17715;DHT22;8977;50.902;4.314;2022-11-20T04:15:28;9.40;99.90
17715;DHT22;8977;50.902;4.314;2022-11-20T04:17:55;9.40;99.90
17715;DHT22;8977;50.902;4.314;2022-11-20T04:20:22;9.40;99.90
17715;DHT22;8977;50.902;4.314;2022-11-20T04:22:53;9.40;99.90
17715;DHT22;8977;50.902;4.314;2022-11-20T04:25:20;9.40;99.90
17715;DHT22;8977;50.902;4.314;2022-11-20T04:27:47;9.40;99.90
17715;DHT22;8977;50.902;4.314;2022-11-20T04:30:14;9.40;99.90
17715;DHT22;8977;50.902;4.314;2022-11-20T04:32:41;9.40;99.90
17715;DHT22;8977;50.902;4.314;2022-11-20T04:35:08;9.40;99.90
17715;DHT22;8977;50.902;4.314;2022-11-20T04:37:35;9.40;99.90
17715;DHT22;8977;50.902;4.314;2022-11-20T04:40:04;9.40;99.90
17715;DHT22;8977;50.902;4.314;2022-11-20T04:42:31;9.40;99.90
17715;DHT22;8977;50.902;4.314;2022-11-20T04:44:58;9.40;99.90
17715;DHT22;8977;50.902;4.314;2022-11-20T04:47:25;9.40;99.90
17715;DHT22;8977;50.902;4.314;2022-11-20T04:49:51;9.40;99.90
17715;DHT22;8977;50.902;4.314;2022-11-20T04:52:18;9.40;99.90
17715;DHT22;8977;50.902;4.314;2022-11-20T04:54:45;9.40;99.90
17715;DHT22;8977;50.902;4.314;2022-11-20T04:57:14;9.40;99.90
17715;DHT22;8977;50.902;4.314;2022-11-20T04:59:41;9.50;99.90
17715;DHT22;8977;50.902;4.314;2022-11-20T05:02:09;9.50;99.90
17715;DHT22;8977;50.902;4.314;2022-11-20T05:04:35;9.50;99.90
17715;DHT22;8977;50.902;4.314;2022-11-20T05:07:02;9.40;99.90
17715;DHT22;8977;50.902;4.314;2022-11-20T05:09:30;9.50;99.90
17715;DHT22;8977;50.902;4.314;2022-11-20T05:11:57;9.50;99.90
17715;DHT22;8977;50.902;4.314;2022-11-20T05:14:25;9.50;99.90
17715;DHT22;8977;50.902;4.314;2022-11-20T05:16:52;9.50;99.90
17715;DHT22;8977;50.902;4.314;2022-11-20T05:19:19;9.50;99.90
17715;DHT22;8977;50.902;4.314;2022-11-20T05:21:46;9.50;99.90
17715;DHT22;8977;50.902;4.314;2022-11-20T05:24:13;9.50;99.90
17715;DHT22;8977;50.902;4.314;2022-11-20T05:26:40;9.50;99.90
17715;DHT22;8977;50.902;4.314;2022-11-20T05:29:06;9.60;99.90
17715;DHT22;8977;50.902;4.314;2022-11-20T05:31:35;9.50;99.90
17715;DHT22;8977;50.902;4.314;2022-11-20T05:34:02;9.50;99.90
17715;DHT22;8977;50.902;4.314;2022-11-20T05:36:30;9.50;99.90
17715;DHT22;8977;50.902;4.314;2022-11-20T05:38:56;9.40;99.90
17715;DHT22;8977;50.902;4.314;2022-11-20T05:41:24;9.50;99.90
17715;DHT22;8977;50.902;4.314;2022-11-20T05:43:51;9.50;99.90
17715;DHT22;8977;50.902;4.314;2022-11-20T05:46:19;9.50;99.90
17715;DHT22;8977;50.902;4.314;2022-11-20T05:48:48;9.60;99.90
17715;DHT22;8977;50.902;4.314;2022-11-20T05:51:17;9.60;99.90
17715;DHT22;8977;50.902;4.314;2022-11-20T05:53:44;9.60;99.90
17715;DHT22;8977;50.902;4.314;2022-11-20T05:56:13;9.60;99.90
17715;DHT22;8977;50.902;4.314;2022-11-20T05:58:41;9.60;99.90
17715;DHT22;8977;50.902;4.314;2022-11-20T06:01:10;9.70;99.90
17715;DHT22;8977;50.902;4.314;2022-11-20T06:03:38;9.70;99.90
17715;DHT22;8977;50.902;4.314;2022-11-20T06:06:07;9.60;99.90
17715;DHT22;8977;50.902;4.314;2022-11-20T06:08:34;9.70;99.90
17715;DHT22;8977;50.902;4.314;2022-11-20T06:11:05;9.60;99.90
17715;DHT22;8977;50.902;4.314;2022-11-20T06:13:32;9.60;99.90
17715;DHT22;8977;50.902;4.314;2022-11-20T06:15:59;9.60;99.90
17715;DHT22;8977;50.902;4.314;2022-11-20T06:18:27;9.60;99.90
17715;DHT22;8977;50.902;4.314;2022-11-20T06:21:03;9.60;99.90
17715;DHT22;8977;50.902;4.314;2022-11-20T06:23:32;9.70;99.90
17715;DHT22;8977;50.902;4.314;2022-11-20T06:26:01;9.70;99.90
17715;DHT22;8977;50.902;4.314;2022-11-20T06:28:28;9.70;99.90
17715;DHT22;8977;50.902;4.314;2022-11-20T06:30:55;9.70;99.90
17715;DHT22;8977;50.902;4.314;2022-11-20T06:33:22;9.70;99.90
17715;DHT22;8977;50.902;4.314;2022-11-20T06:35:49;9.70;99.90
17715;DHT22;8977;50.902;4.314;2022-11-20T06:38:15;9.70;99.90
17715;DHT22;8977;50.902;4.314;2022-11-20T06:40:44;9.70;99.90
17715;DHT22;8977;50.902;4.314;2022-11-20T06:43:10;9.80;99.90
17715;DHT22;8977;50.902;4.314;2022-11-20T06:45:37;9.70;99.90
17715;DHT22;8977;50.902;4.314;2022-11-20T06:48:05;9.80;99.90
17715;DHT22;8977;50.902;4.314;2022-11-20T06:50:31;9.80;99.90
17715;DHT22;8977;50.902;4.314;2022-11-20T06:53:00;9.80;99.90
17715;DHT22;8977;50.902;4.314;2022-11-20T06:55:28;9.70;99.90
17715;DHT22;8977;50.902;4.314;2022-11-20T06:57:57;9.80;99.90
17715;DHT22;8977;50.902;4.314;2022-11-20T07:00:24;9.80;99.90
17715;DHT22;8977;50.902;4.314;2022-11-20T07:02:51;9.80;99.90
17715;DHT22;8977;50.902;4.314;2022-11-20T07:05:18;9.80;99.90
17715;DHT22;8977;50.902;4.314;2022-11-20T07:07:44;9.80;99.90
17715;DHT22;8977;50.902;4.314;2022-11-20T07:10:12;9.90;99.90
17715;DHT22;8977;50.902;4.314;2022-11-20T07:12:39;9.80;99.90
17715;DHT22;8977;50.902;4.314;2022-11-20T07:15:08;9.80;99.90
17715;DHT22;8977;50.902;4.314;2022-11-20T07:17:35;9.90;99.90
17715;DHT22;8977;50.902;4.314;2022-11-20T07:20:02;9.90;99.90
17715;DHT22;8977;50.902;4.314;2022-11-20T07:22:29;9.90;99.90
17715;DHT22;8977;50.902;4.314;2022-11-20T07:24:56;9.90;99.90
17715;DHT22;8977;50.902;4.314;2022-11-20T07:27:23;9.90;99.90
17715;DHT22;8977;50.902;4.314;2022-11-20T07:29:49;9.90;99.90
17715;DHT22;8977;50.902;4.314;2022-11-20T07:32:18;9.90;99.90
17715;DHT22;8977;50.902;4.314;2022-11-20T07:34:44;9.90;99.90
17715;DHT22;8977;50.902;4.314;2022-11-20T07:37:11;9.90;99.90
17715;DHT22;8977;50.902;4.314;2022-11-20T07:39:38;9.90;99.90
17715;DHT22;8977;50.902;4.314;2022-11-20T07:42:06;9.90;99.90
17715;DHT22;8977;50.902;4.314;2022-11-20T07:44:33;9.90;99.90
17715;DHT22;8977;50.902;4.314;2022-11-20T07:47:00;9.90;99.90
17715;DHT22;8977;50.902;4.314;2022-11-20T07:49:29;10.00;99.90
17715;DHT22;8977;50.902;4.314;2022-11-20T07:51:55;9.90;99.90
17715;DHT22;8977;50.902;4.314;2022-11-20T07:54:22;10.00;99.90
17715;DHT22;8977;50.902;4.314;2022-11-20T07:56:50;10.00;99.90
17715;DHT22;8977;50.902;4.314;2022-11-20T07:59:17;10.00;99.90
17715;DHT22;8977;50.902;4.314;2022-11-20T08:01:44;10.00;99.90
17715;DHT22;8977;50.902;4.314;2022-11-20T08:04:10;9.90;99.90
17715;DHT22;8977;50.902;4.314;2022-11-20T08:06:39;10.00;99.90
17715;DHT22;8977;50.902;4.314;2022-11-20T08:09:06;10.00;99.90
17715;DHT22;8977;50.902;4.314;2022-11-20T08:11:33;10.00;99.90
17715;DHT22;8977;50.902;4.314;2022-11-20T08:14:17;10.00;99.90
17715;DHT22;8977;50.902;4.314;2022-11-20T08:16:46;10.10;99.90
17715;DHT22;8977;50.902;4.314;2022-11-20T08:19:14;10.10;99.90
17715;DHT22;8977;50.902;4.314;2022-11-20T08:21:42;10.10;99.90
17715;DHT22;8977;50.902;4.314;2022-11-20T08:24:10;10.10;99.90
17715;DHT22;8977;50.902;4.314;2022-11-20T08:26:38;10.10;99.90
17715;DHT22;8977;50.902;4.314;2022-11-20T08:29:05;10.10;99.90
17715;DHT22;8977;50.902;4.314;2022-11-20T08:31:32;10.20;99.90
17715;DHT22;8977;50.902;4.314;2022-11-20T08:33:59;10.20;99.90
17715;DHT22;8977;50.902;4.314;2022-11-20T08:36:26;10.20;99.90
17715;DHT22;8977;50.902;4.314;2022-11-20T08:38:55;10.20;99.90
17715;DHT22;8977;50.902;4.314;2022-11-20T08:41:22;10.20;99.90
17715;DHT22;8977;50.902;4.314;2022-11-20T08:43:54;10.20;99.90
17715;DHT22;8977;50.902;4.314;2022-11-20T08:46:22;10.20;99.90
17715;DHT22;8977;50.902;4.314;2022-11-20T08:48:49;10.20;99.90
17715;DHT22;8977;50.902;4.314;2022-11-20T08:51:16;10.20;99.90
17715;DHT22;8977;50.902;4.314;2022-11-20T08:53:43;10.20;99.90
17715;DHT22;8977;50.902;4.314;2022-11-20T08:56:13;10.20;99.90
17715;DHT22;8977;50.902;4.314;2022-11-20T08:58:40;10.20;99.90
17715;DHT22;8977;50.902;4.314;2022-11-20T09:01:07;10.30;99.90
17715;DHT22;8977;50.902;4.314;2022-11-20T09:03:34;10.20;99.90
17715;DHT22;8977;50.902;4.314;2022-11-20T09:06:02;10.30;99.90
17715;DHT22;8977;50.902;4.314;2022-11-20T09:08:30;10.30;99.90
17715;DHT22;8977;50.902;4.314;2022-11-20T09:10:58;10.30;99.90
17715;DHT22;8977;50.902;4.314;2022-11-20T09:13:27;10.30;99.90
17715;DHT22;8977;50.902;4.314;2022-11-20T09:15:55;10.30;99.90
17715;DHT22;8977;50.902;4.314;2022-11-20T09:18:22;10.30;99.90
17715;DHT22;8977;50.902;4.314;2022-11-20T09:20:49;10.30;99.90
17715;DHT22;8977;50.902;4.314;2022-11-20T09:23:17;10.40;99.90
17715;DHT22;8977;50.902;4.314;2022-11-20T09:25:44;10.40;99.90
17715;DHT22;8977;50.902;4.314;2022-11-20T09:28:11;10.40;99.90
17715;DHT22;8977;50.902;4.314;2022-11-20T09:30:39;10.40;99.90
17715;DHT22;8977;50.902;4.314;2022-11-20T09:33:06;10.40;99.90
17715;DHT22;8977;50.902;4.314;2022-11-20T09:35:33;10.40;99.90
17715;DHT22;8977;50.902;4.314;2022-11-20T09:38:05;10.50;99.90
17715;DHT22;8977;50.902;4.314;2022-11-20T09:40:32;10.50;99.90
17715;DHT22;8977;50.902;4.314;2022-11-20T09:43:04;10.50;99.90
17715;DHT22;8977;50.902;4.314;2022-11-20T09:45:42;10.60;99.90
17715;DHT22;8977;50.902;4.314;2022-11-20T09:48:20;10.60;99.90
17715;DHT22;8977;50.902;4.314;2022-11-20T09:50:55;10.60;99.90
17715;DHT22;8977;50.902;4.314;2022-11-20T09:53:29;10.60;99.90
17715;DHT22;8977;50.902;4.314;2022-11-20T09:55:58;10.60;99.90
17715;DHT22;8977;50.902;4.314;2022-11-20T09:58:31;10.60;99.90
17715;DHT22;8977;50.902;4.314;2022-11-20T10:01:09;10.70;99.90
17715;DHT22;8977;50.902;4.314;2022-11-20T10:03:41;10.70;99.90
17715;DHT22;8977;50.902;4.314;2022-11-20T10:06:15;10.70;99.90
17715;DHT22;8977;50.902;4.314;2022-11-20T10:08:49;10.70;99.90
17715;DHT22;8977;50.902;4.314;2022-11-20T10:11:23;10.70;99.90
17715;DHT22;8977;50.902;4.314;2022-11-20T10:14:03;10.80;99.90
17715;DHT22;8977;50.902;4.314;2022-11-20T10:16:42;10.70;99.90
17715;DHT22;8977;50.902;4.314;2022-11-20T10:19:26;10.80;99.90
17715;DHT22;8977;50.902;4.314;2022-11-20T10:22:02;10.80;99.90
17715;DHT22;8977;50.902;4.314;2022-11-20T10:24:44;10.80;99.90
17715;DHT22;8977;50.902;4.314;2022-11-20T10:27:32;10.80;99.90
17715;DHT22;8977;50.902;4.314;2022-11-20T10:30:02;10.80;99.90
17715;DHT22;8977;50.902;4.314;2022-11-20T10:32:36;10.80;99.90
17715;DHT22;8977;50.902;4.314;2022-11-20T10:35:10;10.90;99.90
17715;DHT22;8977;50.902;4.314;2022-11-20T10:37:42;10.90;99.90
17715;DHT22;8977;50.902;4.314;2022-11-20T10:40:20;10.90;99.90
17715;DHT22;8977;50.902;4.314;2022-11-20T10:42:52;11.00;99.90
17715;DHT22;8977;50.902;4.314;2022-11-20T10:45:34;11.00;99.90
17715;DHT22;8977;50.902;4.314;2022-11-20T10:48:12;11.00;99.90
17715;DHT22;8977;50.902;4.314;2022-11-20T10:50:53;11.00;99.90
17715;DHT22;8977;50.902;4.314;2022-11-20T10:53:37;11.10;99.90
17715;DHT22;8977;50.902;4.314;2022-11-20T10:56:11;11.10;99.90
17715;DHT22;8977;50.902;4.314;2022-11-20T10:58:45;11.10;99.90
17715;DHT22;8977;50.902;4.314;2022-11-20T11:01:17;11.10;99.90
17715;DHT22;8977;50.902;4.314;2022-11-20T11:03:46;11.20;99.90
17715;DHT22;8977;50.902;4.314;2022-11-20T11:06:20;11.10;99.90
17715;DHT22;8977;50.902;4.314;2022-11-20T11:08:49;11.20;99.90
17715;DHT22;8977;50.902;4.314;2022-11-20T11:11:22;11.20;99.90
17715;DHT22;8977;50.902;4.314;2022-11-20T11:13:51;11.20;99.90
17715;DHT22;8977;50.902;4.314;2022-11-20T11:16:23;11.20;99.90
17715;DHT22;8977;50.902;4.314;2022-11-20T11:18:52;11.30;99.90
17715;DHT22;8977;50.902;4.314;2022-11-20T11:21:29;11.20;99.90
17715;DHT22;8977;50.902;4.314;2022-11-20T11:24:00;11.20;99.90
17715;DHT22;8977;50.902;4.314;2022-11-20T11:26:29;11.20;99.90
17715;DHT22;8977;50.902;4.314;2022-11-20T11:28:56;11.20;99.90
17715;DHT22;8977;50.902;4.314;2022-11-20T11:31:25;11.20;99.90
17715;DHT22;8977;50.902;4.314;2022-11-20T11:34:03;11.20;99.90
17715;DHT22;8977;50.902;4.314;2022-11-20T11:36:32;11.30;99.90
17715;DHT22;8977;50.902;4.314;2022-11-20T11:39:00;11.30;99.90
17715;DHT22;8977;50.902;4.314;2022-11-20T11:41:30;11.30;99.90
17715;DHT22;8977;50.902;4.314;2022-11-20T11:44:02;11.30;99.90
17715;DHT22;8977;50.902;4.314;2022-11-20T11:46:53;11.30;99.90
17715;DHT22;8977;50.902;4.314;2022-11-20T11:49:22;11.30;99.90
17715;DHT22;8977;50.902;4.314;2022-11-20T11:51:59;11.30;99.90
17715;DHT22;8977;50.902;4.314;2022-11-20T11:54:33;11.30;99.90
17715;DHT22;8977;50.902;4.314;2022-11-20T11:57:05;11.30;99.90
17715;DHT22;8977;50.902;4.314;2022-11-20T11:59:51;11.30;99.90
17715;DHT22;8977;50.902;4.314;2022-11-20T12:02:32;11.30;99.90
17715;DHT22;8977;50.902;4.314;2022-11-20T12:05:12;11.30;99.90
17715;DHT22;8977;50.902;4.314;2022-11-20T12:07:43;11.30;99.90
17715;DHT22;8977;50.902;4.314;2022-11-20T12:10:17;11.30;99.90
17715;DHT22;8977;50.902;4.314;2022-11-20T12:12:48;11.20;99.90
17715;DHT22;8977;50.902;4.314;2022-11-20T12:15:26;11.30;99.90
17715;DHT22;8977;50.902;4.314;2022-11-20T12:17:53;11.30;99.90
17715;DHT22;8977;50.902;4.314;2022-11-20T12:20:26;11.30;99.90
17715;DHT22;8977;50.902;4.314;2022-11-20T12:22:59;11.20;99.90
17715;DHT22;8977;50.902;4.314;2022-11-20T12:25:30;11.20;99.90
17715;DHT22;8977;50.902;4.314;2022-11-20T12:28:18;11.20;99.90
17715;DHT22;8977;50.902;4.314;2022-11-20T12:31:02;11.20;99.90
17715;DHT22;8977;50.902;4.314;2022-11-20T12:34:08;11.30;99.90
17715;DHT22;8977;50.902;4.314;2022-11-20T12:36:44;11.20;99.90
17715;DHT22;8977;50.902;4.314;2022-11-20T12:39:29;11.20;99.90
17715;DHT22;8977;50.902;4.314;2022-11-20T12:51:54;11.10;99.90
17715;DHT22;8977;50.902;4.314;2022-11-20T12:54:46;11.20;99.90
17715;DHT22;8977;50.902;4.314;2022-11-20T12:57:21;11.10;99.90
17715;DHT22;8977;50.902;4.314;2022-11-20T13:00:10;11.20;99.90
17715;DHT22;8977;50.902;4.314;2022-11-20T13:02:56;11.20;99.90
17715;DHT22;8977;50.902;4.314;2022-11-20T13:05:31;11.20;99.90
17715;DHT22;8977;50.902;4.314;2022-11-20T13:08:04;11.20;99.90
17715;DHT22;8977;50.902;4.314;2022-11-20T13:10:38;11.20;99.90
17715;DHT22;8977;50.902;4.314;2022-11-20T13:13:14;11.20;99.90
17715;DHT22;8977;50.902;4.314;2022-11-20T13:15:48;11.30;99.90
17715;DHT22;8977;50.902;4.314;2022-11-20T13:18:17;11.20;99.90
17715;DHT22;8977;50.902;4.314;2022-11-20T13:20:45;11.20;99.90
17715;DHT22;8977;50.902;4.314;2022-11-20T13:23:24;11.20;99.90
17715;DHT22;8977;50.902;4.314;2022-11-20T13:26:06;11.20;99.90
17715;DHT22;8977;50.902;4.314;2022-11-20T13:28:40;11.20;99.90
17715;DHT22;8977;50.902;4.314;2022-11-20T13:31:25;11.20;99.90
17715;DHT22;8977;50.902;4.314;2022-11-20T13:33:55;11.20;99.90
17715;DHT22;8977;50.902;4.314;2022-11-20T13:36:24;11.20;99.90
17715;DHT22;8977;50.902;4.314;2022-11-20T13:38:53;11.20;99.90
17715;DHT22;8977;50.902;4.314;2022-11-20T13:41:25;11.20;99.90
17715;DHT22;8977;50.902;4.314;2022-11-20T13:43:59;11.20;99.90
17715;DHT22;8977;50.902;4.314;2022-11-20T13:46:36;11.20;99.90
17715;DHT22;8977;50.902;4.314;2022-11-20T13:49:09;11.20;99.90
17715;DHT22;8977;50.902;4.314;2022-11-20T13:51:41;11.20;99.90
17715;DHT22;8977;50.902;4.314;2022-11-20T14:00:20;11.20;99.90
17715;DHT22;8977;50.902;4.314;2022-11-20T14:02:59;11.20;99.90
17715;DHT22;8977;50.902;4.314;2022-11-20T14:05:28;11.30;99.90
17715;DHT22;8977;50.902;4.314;2022-11-20T14:07:57;11.20;99.90
17715;DHT22;8977;50.902;4.314;2022-11-20T14:10:25;11.20;99.90
17715;DHT22;8977;50.902;4.314;2022-11-20T14:12:55;11.30;99.90
17715;DHT22;8977;50.902;4.314;2022-11-20T14:15:27;11.20;99.90
17715;DHT22;8977;50.902;4.314;2022-11-20T14:17:54;11.30;99.90
17715;DHT22;8977;50.902;4.314;2022-11-20T14:20:24;11.20;99.90
17715;DHT22;8977;50.902;4.314;2022-11-20T14:22:53;11.30;99.90
17715;DHT22;8977;50.902;4.314;2022-11-20T14:25:21;11.30;99.90
17715;DHT22;8977;50.902;4.314;2022-11-20T14:27:55;11.20;99.90
17715;DHT22;8977;50.902;4.314;2022-11-20T14:30:25;11.20;99.90
17715;DHT22;8977;50.902;4.314;2022-11-20T14:32:54;11.20;99.90
17715;DHT22;8977;50.902;4.314;2022-11-20T14:35:25;11.20;99.90
17715;DHT22;8977;50.902;4.314;2022-11-20T14:37:52;11.20;99.90
17715;DHT22;8977;50.902;4.314;2022-11-20T14:40:28;11.20;99.90
17715;DHT22;8977;50.902;4.314;2022-11-20T14:42:58;11.30;99.90
17715;DHT22;8977;50.902;4.314;2022-11-20T14:45:26;11.30;99.90
17715;DHT22;8977;50.902;4.314;2022-11-20T14:47:55;11.20;99.90
17715;DHT22;8977;50.902;4.314;2022-11-20T14:50:24;11.20;99.90
17715;DHT22;8977;50.902;4.314;2022-11-20T14:52:53;11.20;99.90
17715;DHT22;8977;50.902;4.314;2022-11-20T14:55:30;11.20;99.90
17715;DHT22;8977;50.902;4.314;2022-11-20T14:58:01;11.20;99.90
17715;DHT22;8977;50.902;4.314;2022-11-20T15:00:29;11.20;99.90
17715;DHT22;8977;50.902;4.314;2022-11-20T15:02:57;11.20;99.90
17715;DHT22;8977;50.902;4.314;2022-11-20T15:05:26;11.20;99.90
17715;DHT22;8977;50.902;4.314;2022-11-20T15:08:10;11.30;99.90
17715;DHT22;8977;50.902;4.314;2022-11-20T15:10:43;11.20;99.90
17715;DHT22;8977;50.902;4.314;2022-11-20T15:13:14;11.40;99.90
17715;DHT22;8977;50.902;4.314;2022-11-20T15:15:45;11.20;99.90
17715;DHT22;8977;50.902;4.314;2022-11-20T15:18:14;11.30;99.90
17715;DHT22;8977;50.902;4.314;2022-11-20T15:20:42;11.30;99.90
17715;DHT22;8977;50.902;4.314;2022-11-20T15:23:11;11.20;99.90
17715;DHT22;8977;50.902;4.314;2022-11-20T15:25:39;11.30;99.90
17715;DHT22;8977;50.902;4.314;2022-11-20T15:28:15;11.20;99.90
17715;DHT22;8977;50.902;4.314;2022-11-20T15:30:42;11.20;99.90
17715;DHT22;8977;50.902;4.314;2022-11-20T15:33:09;11.30;99.90
17715;DHT22;8977;50.902;4.314;2022-11-20T15:35:36;11.30;99.90
17715;DHT22;8977;50.902;4.314;2022-11-20T15:38:03;11.30;99.90
17715;DHT22;8977;50.902;4.314;2022-11-20T15:40:30;11.30;99.90
17715;DHT22;8977;50.902;4.314;2022-11-20T15:42:57;11.30;99.90
17715;DHT22;8977;50.902;4.314;2022-11-20T15:45:36;11.30;99.90
17715;DHT22;8977;50.902;4.314;2022-11-20T15:48:04;11.30;99.90
17715;DHT22;8977;50.902;4.314;2022-11-20T15:50:36;11.40;99.90
17715;DHT22;8977;50.902;4.314;2022-11-20T15:53:04;11.50;99.90
17715;DHT22;8977;50.902;4.314;2022-11-20T15:55:31;11.40;99.90
17715;DHT22;8977;50.902;4.314;2022-11-20T15:57:59;11.30;99.90
17715;DHT22;8977;50.902;4.314;2022-11-20T16:00:25;11.30;99.90
17715;DHT22;8977;50.902;4.314;2022-11-20T16:02:54;11.40;99.90
17715;DHT22;8977;50.902;4.314;2022-11-20T16:05:21;11.40;99.90
17715;DHT22;8977;50.902;4.314;2022-11-20T16:07:51;11.30;99.90
17715;DHT22;8977;50.902;4.314;2022-11-20T16:10:18;11.40;99.90
17715;DHT22;8977;50.902;4.314;2022-11-20T16:12:46;11.40;99.90
17715;DHT22;8977;50.902;4.314;2022-11-20T16:15:30;11.40;99.90
17715;DHT22;8977;50.902;4.314;2022-11-20T16:18:16;11.30;99.90
17715;DHT22;8977;50.902;4.314;2022-11-20T16:20:44;11.40;99.90
17715;DHT22;8977;50.902;4.314;2022-11-20T16:23:11;11.30;99.90
17715;DHT22;8977;50.902;4.314;2022-11-20T16:25:39;11.40;99.90
17715;DHT22;8977;50.902;4.314;2022-11-20T16:28:06;11.40;99.90